createdAt,value
2022-08-20T00:01:55.942Z,23.44
2022-08-20T00:04:24.040Z,23.40
2022-08-20T00:06:51.214Z,23.28
2022-08-20T00:09:18.890Z,23.30
2022-08-20T00:11:46.266Z,23.29
2022-08-20T00:14:13.476Z,23.28
2022-08-20T00:16:40.776Z,23.26
2022-08-20T00:19:09.090Z,23.21
2022-08-20T00:21:37.196Z,23.16
2022-08-20T00:24:05.436Z,23.15
2022-08-20T00:26:32.648Z,23.13
2022-08-20T00:29:00.355Z,23.11
2022-08-20T00:31:27.917Z,23.10
2022-08-20T00:33:55.396Z,23.08
2022-08-20T00:36:30.025Z,23.00
2022-08-20T00:39:00.210Z,22.91
2022-08-20T00:41:28.396Z,22.85
2022-08-20T00:44:14.642Z,22.79
2022-08-20T00:46:43.405Z,22.75
2022-08-20T00:49:21.922Z,22.73
2022-08-20T00:51:59.685Z,22.76
2022-08-20T00:54:53.162Z,22.77
2022-08-20T00:57:58.954Z,22.81
2022-08-20T01:00:33.744Z,22.82
2022-08-20T01:03:01.430Z,22.80
2022-08-20T01:05:30.059Z,22.77
2022-08-20T01:07:58.189Z,22.75
2022-08-20T01:10:34.835Z,22.73
2022-08-20T01:13:10.555Z,22.69
2022-08-20T01:15:43.436Z,22.66
2022-08-20T01:18:20.453Z,22.64
2022-08-20T01:21:00.900Z,22.62
2022-08-20T01:24:00.831Z,22.60
2022-08-20T01:26:39.674Z,22.59
2022-08-20T01:29:11.280Z,22.55
2022-08-20T01:31:41.250Z,22.54
2022-08-20T01:34:13.336Z,22.57
2022-08-20T01:36:47.622Z,22.59
2022-08-20T01:39:20.684Z,22.59
2022-08-20T01:42:23.417Z,22.57
2022-08-20T01:44:52.574Z,22.60
2022-08-20T01:47:27.157Z,22.62
2022-08-20T01:50:05.607Z,22.60
2022-08-20T01:52:51.484Z,22.59
2022-08-20T01:55:19.221Z,22.58
2022-08-20T01:57:48.458Z,22.56
2022-08-20T02:00:19.658Z,22.52
2022-08-20T02:02:50.852Z,22.44
2022-08-20T02:05:19.731Z,22.42
2022-08-20T02:07:47.290Z,22.36
2022-08-20T02:10:17.307Z,22.21
2022-08-20T02:12:44.604Z,22.14
2022-08-20T02:15:12.910Z,22.12
2022-08-20T02:17:41.474Z,22.14
2022-08-20T02:20:14.512Z,22.16
2022-08-20T02:22:53.473Z,22.15
2022-08-20T02:25:27.162Z,22.07
2022-08-20T02:28:00.989Z,22.01
2022-08-20T02:30:41.953Z,21.99
2022-08-20T02:33:12.993Z,21.84
2022-08-20T02:35:42.471Z,21.79
2022-08-20T02:38:11.562Z,21.74
2022-08-20T02:40:40.447Z,21.73
2022-08-20T02:43:07.562Z,21.74
2022-08-20T02:45:43.397Z,21.72
2022-08-20T02:48:20.250Z,21.72
2022-08-20T02:50:52.127Z,21.74
2022-08-20T02:53:19.465Z,21.65
2022-08-20T02:55:46.784Z,21.59
2022-08-20T02:58:14.461Z,21.62
2022-08-20T03:00:42.436Z,21.66
2022-08-20T03:03:11.412Z,21.64
2022-08-20T03:05:40.722Z,21.68
2022-08-20T03:08:11.262Z,21.70
2022-08-20T03:10:40.964Z,21.74
2022-08-20T03:13:11.853Z,21.74
2022-08-20T03:16:00.310Z,21.72
2022-08-20T03:18:33.890Z,21.72
2022-08-20T03:21:02.184Z,21.69
2022-08-20T03:23:29.918Z,21.72
2022-08-20T03:25:57.994Z,21.74
2022-08-20T03:28:25.939Z,21.70
2022-08-20T03:30:54.249Z,21.72
2022-08-20T03:33:21.393Z,21.74
2022-08-20T03:35:49.118Z,21.73
2022-08-20T03:38:18.623Z,21.74
2022-08-20T03:40:56.628Z,21.76
2022-08-20T03:43:24.327Z,21.76
2022-08-20T03:45:51.938Z,21.85
2022-08-20T03:48:20.553Z,21.92
2022-08-20T03:50:50.341Z,21.94
2022-08-20T03:53:19.026Z,21.96
2022-08-20T03:55:54.418Z,21.97
2022-08-20T03:58:35.454Z,21.94
2022-08-20T04:01:06.688Z,21.90
2022-08-20T04:03:35.057Z,21.85
2022-08-20T04:06:03.544Z,21.81
2022-08-20T04:08:30.943Z,21.85
2022-08-20T04:10:59.462Z,21.89
2022-08-20T04:13:29.270Z,21.94
2022-08-20T04:16:00.644Z,21.97
2022-08-20T04:18:28.109Z,21.96
2022-08-20T04:20:55.461Z,21.99
2022-08-20T04:23:23.014Z,22.02
2022-08-20T04:25:50.273Z,22.00
2022-08-20T04:28:29.812Z,22.04
2022-08-20T04:31:00.344Z,22.07
2022-08-20T04:33:33.413Z,22.12
2022-08-20T04:36:05.072Z,22.17
2022-08-20T04:38:50.184Z,22.22
2022-08-20T04:41:23.711Z,22.29
2022-08-20T04:43:54.036Z,22.36
2022-08-20T04:46:25.255Z,22.40
2022-08-20T04:48:53.262Z,22.42
2022-08-20T04:51:23.466Z,22.41
2022-08-20T04:53:54.463Z,22.43
2022-08-20T04:56:28.258Z,22.45
2022-08-20T04:58:59.325Z,22.50
2022-08-20T05:01:28.246Z,22.56
2022-08-20T05:03:56.085Z,22.59
2022-08-20T05:06:29.718Z,22.58
2022-08-20T05:08:59.560Z,22.63
2022-08-20T05:11:34.277Z,22.65
2022-08-20T05:14:09.376Z,22.72
2022-08-20T05:16:39.396Z,22.78
2022-08-20T05:19:12.983Z,22.83
2022-08-20T05:21:41.051Z,22.87
2022-08-20T05:24:09.645Z,22.90
2022-08-20T05:26:37.165Z,22.92
2022-08-20T05:29:05.951Z,22.85
2022-08-20T05:31:34.160Z,22.84
2022-08-20T05:34:09.052Z,22.84
2022-08-20T05:36:49.098Z,22.90
2022-08-20T05:39:21.621Z,22.90
2022-08-20T05:41:50.777Z,22.96
2022-08-20T05:44:19.024Z,22.97
2022-08-20T05:46:48.151Z,22.87
2022-08-20T05:49:19.690Z,22.93
2022-08-20T05:51:49.237Z,22.96
2022-08-20T05:54:16.626Z,23.01
2022-08-20T05:56:44.021Z,23.04
2022-08-20T05:59:13.617Z,23.11
2022-08-20T06:01:42.348Z,23.20
2022-08-20T06:04:27.575Z,23.28
2022-08-20T06:07:04.146Z,23.31
2022-08-20T06:09:32.938Z,23.36
2022-08-20T06:12:04.313Z,23.42
2022-08-20T06:14:33.018Z,23.47
2022-08-20T06:17:13.648Z,23.54
2022-08-20T06:19:46.145Z,23.59
2022-08-20T06:22:18.833Z,23.60
2022-08-20T06:24:50.808Z,23.61
2022-08-20T06:27:19.128Z,23.61
2022-08-20T06:29:47.051Z,23.58
2022-08-20T06:32:14.769Z,23.63
2022-08-20T06:34:50.682Z,23.69
2022-08-20T06:37:27.479Z,23.76
2022-08-20T06:40:07.405Z,23.82
2022-08-20T06:42:34.907Z,23.92
2022-08-20T06:45:05.140Z,24.06
2022-08-20T06:47:33.888Z,24.11
2022-08-20T06:50:01.402Z,24.19
2022-08-20T06:52:51.663Z,24.25
2022-08-20T06:55:17.172Z,24.35
2022-08-20T06:57:44.635Z,24.32
2022-08-20T07:00:18.664Z,24.40
2022-08-20T07:02:47.667Z,24.45
2022-08-20T07:05:16.010Z,24.57
2022-08-20T07:07:49.308Z,24.61
2022-08-20T07:10:19.312Z,24.64
2022-08-20T07:12:46.939Z,24.66
2022-08-20T07:15:14.806Z,24.71
2022-08-20T07:17:42.106Z,24.74
2022-08-20T07:20:14.977Z,24.80
2022-08-20T07:22:43.185Z,24.88
2022-08-20T07:25:14.115Z,24.94
2022-08-20T07:27:43.109Z,25.01
2022-08-20T07:30:56.914Z,25.08
2022-08-20T07:33:29.920Z,25.17
2022-08-20T07:36:03.824Z,25.21
2022-08-20T07:38:32.736Z,25.26
2022-08-20T07:41:14.322Z,25.30
2022-08-20T07:43:45.112Z,25.34
2022-08-20T07:46:18.024Z,25.38
2022-08-20T07:48:50.854Z,25.39
2022-08-20T07:51:21.782Z,25.45
2022-08-20T07:53:51.341Z,25.54
2022-08-20T07:56:23.160Z,25.65
2022-08-20T07:58:55.029Z,25.74
2022-08-20T08:01:30.380Z,25.84
2022-08-20T08:03:59.635Z,25.93
2022-08-20T08:06:31.268Z,25.98
2022-08-20T08:09:09.339Z,26.03
2022-08-20T08:11:46.422Z,26.13
2022-08-20T08:14:19.076Z,26.20
2022-08-20T08:16:46.340Z,26.20
2022-08-20T08:19:16.456Z,26.28
2022-08-20T08:21:44.024Z,26.38
2022-08-20T08:24:15.504Z,26.46
2022-08-20T08:26:49.625Z,26.53
2022-08-20T08:29:16.874Z,26.60
2022-08-20T08:31:44.301Z,26.67
2022-08-20T08:34:12.531Z,26.70
2022-08-20T08:36:39.969Z,26.72
2022-08-20T08:39:07.222Z,26.76
2022-08-20T08:41:49.550Z,26.78
2022-08-20T08:44:27.946Z,26.79
2022-08-20T08:47:02.766Z,26.87
2022-08-20T08:49:37.306Z,26.97
2022-08-20T08:52:14.267Z,27.02
2022-08-20T08:54:50.085Z,27.07
2022-08-20T08:57:18.554Z,27.08
2022-08-20T09:00:21.548Z,27.07
2022-08-20T09:03:25.998Z,27.22
2022-08-20T09:05:58.229Z,27.30
2022-08-20T09:08:47.409Z,27.33
2022-08-20T09:11:15.898Z,27.34
2022-08-20T09:13:43.882Z,27.35
2022-08-20T09:16:13.588Z,27.39
2022-08-20T09:18:41.729Z,27.44
2022-08-20T09:21:09.301Z,27.50
2022-08-20T09:23:36.405Z,27.65
2022-08-20T09:26:03.862Z,27.76
2022-08-20T09:28:32.314Z,27.84
2022-08-20T09:31:03.582Z,27.97
2022-08-20T09:33:31.932Z,28.08
2022-08-20T09:35:59.243Z,28.17
2022-08-20T09:38:26.409Z,28.23
2022-08-20T09:40:53.725Z,28.20
2022-08-20T09:43:21.045Z,28.21
2022-08-20T09:45:48.240Z,28.16
2022-08-20T09:48:15.398Z,28.15
2022-08-20T09:50:48.155Z,28.23
2022-08-20T09:53:17.106Z,28.35
2022-08-20T09:55:50.334Z,28.32
2022-08-20T09:58:30.497Z,28.41
2022-08-20T10:01:01.649Z,28.54
2022-08-20T10:03:28.938Z,28.68
2022-08-20T10:05:55.997Z,28.80
2022-08-20T10:08:23.321Z,28.88
2022-08-20T10:10:50.724Z,28.86
2022-08-20T10:13:18.190Z,28.72
2022-08-20T10:15:45.314Z,28.66
2022-08-20T10:18:12.542Z,28.75
2022-08-20T10:20:40.001Z,28.94
2022-08-20T10:23:07.598Z,29.02
2022-08-20T10:25:34.762Z,29.04
2022-08-20T10:28:02.590Z,29.12
2022-08-20T10:30:29.710Z,29.25
2022-08-20T10:32:56.918Z,29.39
2022-08-20T10:35:24.185Z,29.56
2022-08-20T10:37:51.669Z,29.70
2022-08-20T10:40:19.055Z,29.61
2022-08-20T10:42:46.218Z,29.41
2022-08-20T10:45:15.781Z,29.37
2022-08-20T10:47:44.231Z,29.34
2022-08-20T10:50:16.269Z,29.41
2022-08-20T10:52:43.673Z,29.52
2022-08-20T10:55:11.519Z,29.54
2022-08-20T10:57:40.960Z,29.66
2022-08-20T11:00:10.176Z,29.79
2022-08-20T11:02:38.052Z,29.94
2022-08-20T11:05:06.587Z,30.01
2022-08-20T11:07:50.773Z,30.11
2022-08-20T11:10:26.350Z,30.12
2022-08-20T11:12:54.334Z,30.28
2022-08-20T11:15:22.021Z,30.40
2022-08-20T11:17:50.006Z,30.42
2022-08-20T11:20:21.346Z,30.38
2022-08-20T11:22:48.487Z,30.40
2022-08-20T11:25:15.899Z,30.15
2022-08-20T11:27:47.953Z,29.83
2022-08-20T11:30:26.224Z,29.58
2022-08-20T11:32:54.334Z,29.54
2022-08-20T11:35:42.264Z,29.66
2022-08-20T11:38:11.826Z,29.83
2022-08-20T11:40:39.278Z,30.05
2022-08-20T11:43:15.180Z,30.29
2022-08-20T11:45:49.520Z,30.38
2022-08-20T11:48:17.468Z,30.47
2022-08-20T11:50:45.162Z,30.59
2022-08-20T11:53:12.407Z,30.53
2022-08-20T11:55:39.898Z,30.53
2022-08-20T11:58:07.388Z,30.67
2022-08-20T12:00:36.362Z,30.79
2022-08-20T12:03:08.651Z,31.00
2022-08-20T12:05:43.199Z,31.16
2022-08-20T12:08:25.113Z,31.44
2022-08-20T12:10:59.381Z,31.75
2022-08-20T12:13:47.201Z,31.83
2022-08-20T12:16:18.196Z,31.89
2022-08-20T12:18:47.200Z,32.01
2022-08-20T12:21:15.453Z,31.90
2022-08-20T12:23:42.904Z,31.76
2022-08-20T12:26:10.270Z,31.69
2022-08-20T12:28:37.617Z,31.67
2022-08-20T12:31:04.982Z,31.57
2022-08-20T12:33:32.157Z,31.70
2022-08-20T12:35:59.802Z,31.94
2022-08-20T12:38:27.256Z,31.97
2022-08-20T12:40:54.444Z,32.06
2022-08-20T12:43:24.889Z,32.18
2022-08-20T12:45:52.435Z,32.28
2022-08-20T12:48:20.551Z,32.49
2022-08-20T12:50:50.006Z,32.81
2022-08-20T12:53:17.497Z,33.15
2022-08-20T12:55:45.935Z,33.35
2022-08-20T12:58:12.848Z,33.32
2022-08-20T13:00:44.054Z,33.56
2022-08-20T13:03:13.898Z,33.68
2022-08-20T13:05:41.489Z,33.26
2022-08-20T13:08:11.561Z,32.80
2022-08-20T13:10:45.077Z,32.57
2022-08-20T13:13:14.691Z,32.17
2022-08-20T13:15:41.876Z,32.00
2022-08-20T13:18:09.187Z,31.62
2022-08-20T13:20:36.854Z,31.83
2022-08-20T13:23:04.492Z,32.32
2022-08-20T13:25:32.772Z,32.84
2022-08-20T13:28:03.509Z,33.38
2022-08-20T13:30:32.763Z,33.70
2022-08-20T13:33:00.281Z,33.75
2022-08-20T13:35:28.813Z,33.89
2022-08-20T13:37:56.207Z,33.82
2022-08-20T13:40:23.526Z,33.74
2022-08-20T13:42:51.074Z,33.91
2022-08-20T13:45:18.389Z,34.07
2022-08-20T13:47:45.878Z,34.46
2022-08-20T13:50:21.006Z,34.61
2022-08-20T13:52:48.384Z,34.86
2022-08-20T13:55:18.767Z,35.08
2022-08-20T13:57:47.217Z,34.97
2022-08-20T14:00:20.498Z,34.97
2022-08-20T14:02:47.805Z,34.93
2022-08-20T14:05:18.941Z,35.09
2022-08-20T14:07:48.727Z,35.30
2022-08-20T14:10:21.865Z,35.12
2022-08-20T14:12:49.412Z,34.87
2022-08-20T14:15:17.590Z,34.47
2022-08-20T14:17:55.272Z,34.69
2022-08-20T14:20:29.393Z,34.81
2022-08-20T14:23:01.017Z,34.77
2022-08-20T14:25:31.294Z,34.61
2022-08-20T14:27:59.408Z,34.24
2022-08-20T14:30:29.044Z,34.28
2022-08-20T14:32:56.956Z,34.27
2022-08-20T14:35:24.325Z,34.31
2022-08-20T14:37:54.960Z,33.97
2022-08-20T14:40:25.288Z,33.13
2022-08-20T14:42:53.279Z,32.73
2022-08-20T14:45:21.449Z,32.49
2022-08-20T14:47:54.437Z,32.23
2022-08-20T14:50:31.917Z,31.91
2022-08-20T14:53:00.294Z,31.75
2022-08-20T14:55:33.899Z,31.48
2022-08-20T14:58:01.064Z,31.39
2022-08-20T15:00:30.358Z,31.25
2022-08-20T15:02:57.787Z,31.13
2022-08-20T15:05:25.494Z,31.06
2022-08-20T15:07:54.128Z,31.00
2022-08-20T15:10:29.408Z,30.93
2022-08-20T15:12:57.577Z,30.81
2022-08-20T15:15:25.233Z,30.71
2022-08-20T15:17:56.755Z,30.68
2022-08-20T15:20:30.835Z,30.51
2022-08-20T15:22:58.268Z,30.35
2022-08-20T15:25:29.264Z,30.26
2022-08-20T15:28:07.080Z,30.17
2022-08-20T15:30:34.344Z,30.09
2022-08-20T15:33:02.007Z,29.99
2022-08-20T15:35:30.191Z,29.87
2022-08-20T15:37:58.549Z,29.87
2022-08-20T15:40:29.391Z,29.91
2022-08-20T15:42:58.921Z,29.94
2022-08-20T15:45:26.874Z,29.87
2022-08-20T15:48:20.504Z,29.84
2022-08-20T15:50:47.505Z,29.58
2022-08-20T15:53:55.434Z,29.55
2022-08-20T15:56:25.226Z,29.39
2022-08-20T15:59:22.370Z,29.27
2022-08-20T16:02:01.665Z,29.25
2022-08-20T16:04:45.434Z,29.21
2022-08-20T16:07:31.993Z,29.11
2022-08-20T16:10:16.975Z,29.02
2022-08-20T16:12:51.212Z,28.93
2022-08-20T16:15:33.600Z,28.87
2022-08-20T16:18:24.201Z,28.82
2022-08-20T16:20:54.558Z,28.70
2022-08-20T16:23:30.991Z,28.62
2022-08-20T16:26:49.558Z,28.59
2022-08-20T16:29:26.729Z,28.45
2022-08-20T16:32:08.569Z,28.30
2022-08-20T16:35:07.508Z,28.30
2022-08-20T16:38:09.837Z,28.20
2022-08-20T16:40:59.222Z,28.10
2022-08-20T16:43:39.528Z,28.03
2022-08-20T16:46:19.272Z,27.89
2022-08-20T16:48:55.695Z,27.84
2022-08-20T16:51:49.452Z,27.80
2022-08-20T16:54:29.737Z,27.68
2022-08-20T16:57:04.129Z,27.60
2022-08-20T16:59:32.579Z,27.52
2022-08-20T17:02:11.058Z,27.43
2022-08-20T17:04:59.637Z,27.28
2022-08-20T17:07:51.583Z,27.20
2022-08-20T17:10:24.747Z,27.10
2022-08-20T17:13:00.327Z,26.99
2022-08-20T17:15:31.413Z,26.89
2022-08-20T17:18:32.496Z,26.78
2022-08-20T17:21:03.848Z,26.66
2022-08-20T17:23:54.635Z,26.58
2022-08-20T17:26:31.320Z,26.57
2022-08-20T17:29:02.961Z,26.54
2022-08-20T17:31:41.278Z,26.47
2022-08-20T17:34:23.238Z,26.37
2022-08-20T17:37:26.365Z,26.28
2022-08-20T17:40:28.414Z,26.14
2022-08-20T17:43:04.198Z,26.09
2022-08-20T17:45:39.639Z,26.03
2022-08-20T17:48:13.942Z,26.00
2022-08-20T17:50:43.359Z,25.95
2022-08-20T17:53:33.699Z,25.86
2022-08-20T17:56:08.229Z,25.78
2022-08-20T17:58:54.366Z,25.73
2022-08-20T18:01:25.335Z,25.72
2022-08-20T18:03:53.552Z,25.69
2022-08-20T18:06:36.869Z,25.67
2022-08-20T18:09:15.853Z,25.59
2022-08-20T18:12:08.717Z,25.55
2022-08-20T18:15:25.002Z,25.51
2022-08-20T18:18:56.377Z,25.39
2022-08-20T18:22:15.286Z,25.34
2022-08-20T18:25:00.480Z,25.31
2022-08-20T18:27:43.922Z,25.27
2022-08-20T18:30:20.234Z,25.24
2022-08-20T18:32:58.699Z,25.19
2022-08-20T18:35:45.681Z,25.15
2022-08-20T18:38:22.377Z,25.15
2022-08-20T18:40:54.898Z,25.14
2022-08-20T18:43:29.908Z,25.10
2022-08-20T18:46:19.452Z,25.06
2022-08-20T18:48:59.589Z,25.02
2022-08-20T18:51:50.122Z,24.94
2022-08-20T18:54:35.700Z,24.89
2022-08-20T18:57:21.488Z,24.86
2022-08-20T19:00:15.854Z,24.85
2022-08-20T19:03:07.562Z,24.76
2022-08-20T19:06:08.068Z,24.70
2022-08-20T19:08:59.378Z,24.66
2022-08-20T19:11:56.236Z,24.60
2022-08-20T19:14:39.920Z,24.56
2022-08-20T19:17:14.348Z,24.52
2022-08-20T19:19:41.771Z,24.47
2022-08-20T19:22:12.818Z,24.43
2022-08-20T19:24:43.988Z,24.37
2022-08-20T19:27:12.653Z,24.32
2022-08-20T19:29:48.957Z,24.22
2022-08-20T19:32:32.794Z,24.15
2022-08-20T19:35:06.773Z,24.14
2022-08-20T19:37:50.528Z,24.12
2022-08-20T19:40:32.584Z,24.14
2022-08-20T19:43:04.421Z,24.14
2022-08-20T19:45:43.692Z,24.14
2022-08-20T19:48:35.118Z,24.13
2022-08-20T19:51:12.631Z,24.13
2022-08-20T19:53:48.377Z,24.08
2022-08-20T19:56:25.313Z,24.08
2022-08-20T19:59:07.752Z,24.07
2022-08-20T20:01:36.964Z,24.09
2022-08-20T20:04:14.107Z,24.07
2022-08-20T20:06:46.986Z,24.08
2022-08-20T20:09:28.201Z,24.08
2022-08-20T20:12:02.477Z,24.06
2022-08-20T20:14:34.165Z,23.99
2022-08-20T20:17:05.721Z,23.92
2022-08-20T20:19:47.529Z,23.91
2022-08-20T20:22:26.636Z,23.89
2022-08-20T20:25:33.429Z,23.87
2022-08-20T20:28:42.297Z,23.84
2022-08-20T20:31:11.633Z,23.79
2022-08-20T20:33:44.298Z,23.75
2022-08-20T20:36:18.048Z,23.72
2022-08-20T20:39:00.684Z,23.68
2022-08-20T20:41:29.347Z,23.67
2022-08-20T20:44:19.056Z,23.64
2022-08-20T20:46:51.529Z,23.59
2022-08-20T20:49:25.745Z,23.57
2022-08-20T20:52:15.307Z,23.59
2022-08-20T20:54:45.907Z,23.63
2022-08-20T20:57:18.907Z,23.68
2022-08-20T21:00:00.095Z,23.73
2022-08-20T21:02:27.434Z,23.76
2022-08-20T21:04:57.822Z,23.76
2022-08-20T21:07:25.472Z,23.78
2022-08-20T21:09:56.027Z,23.79
2022-08-20T21:12:24.099Z,23.76
2022-08-20T21:14:51.500Z,23.73
2022-08-20T21:17:22.538Z,23.70
2022-08-20T21:19:51.766Z,23.72
2022-08-20T21:22:20.176Z,23.69
2022-08-20T21:24:51.067Z,23.68
2022-08-20T21:27:24.437Z,23.68
2022-08-20T21:29:53.504Z,23.68
2022-08-20T21:32:21.232Z,23.67
2022-08-20T21:34:49.381Z,23.67
2022-08-20T21:37:17.535Z,23.66
2022-08-20T21:39:44.708Z,23.62
2022-08-20T21:42:29.249Z,23.58
2022-08-20T21:44:58.741Z,23.52
2022-08-20T21:47:27.632Z,23.48
2022-08-20T21:49:55.124Z,23.45
2022-08-20T21:52:22.751Z,23.41
2022-08-20T21:54:50.238Z,23.37
2022-08-20T21:57:27.475Z,23.32
2022-08-20T21:59:57.061Z,23.27
2022-08-20T22:02:25.614Z,23.24
2022-08-20T22:04:54.380Z,23.22
2022-08-20T22:07:22.038Z,23.19
2022-08-20T22:09:49.460Z,23.12
2022-08-20T22:12:22.601Z,23.08
2022-08-20T22:14:50.423Z,23.07
2022-08-20T22:17:18.042Z,23.07
2022-08-20T22:19:45.189Z,23.04
2022-08-20T22:22:15.169Z,23.04
2022-08-20T22:24:45.091Z,23.04
2022-08-20T22:27:12.825Z,23.05
2022-08-20T22:29:40.207Z,23.06
2022-08-20T22:32:07.760Z,23.07
2022-08-20T22:34:36.735Z,23.09
2022-08-20T22:37:04.100Z,23.09
2022-08-20T22:39:31.282Z,23.07
2022-08-20T22:41:58.438Z,23.10
2022-08-20T22:44:25.865Z,23.08
2022-08-20T22:46:59.053Z,23.07
2022-08-20T22:49:31.118Z,23.09
2022-08-20T22:51:58.768Z,23.09
2022-08-20T22:54:26.652Z,23.09
2022-08-20T22:56:54.526Z,23.07
2022-08-20T22:59:22.185Z,23.05
2022-08-20T23:01:51.330Z,23.01
2022-08-20T23:04:30.712Z,22.99
2022-08-20T23:06:59.308Z,22.97
2022-08-20T23:09:27.382Z,22.97
2022-08-20T23:11:54.882Z,22.99
2022-08-20T23:14:22.221Z,22.94
2022-08-20T23:17:09.023Z,22.84
2022-08-20T23:19:39.374Z,22.75
2022-08-20T23:22:07.159Z,22.74
2022-08-20T23:24:35.552Z,22.69
2022-08-20T23:27:05.470Z,22.70
2022-08-20T23:29:33.478Z,22.70
2022-08-20T23:32:00.864Z,22.71
2022-08-20T23:34:28.250Z,22.69
2022-08-20T23:36:57.481Z,22.71
2022-08-20T23:39:26.145Z,22.69
2022-08-20T23:41:53.894Z,22.68
2022-08-20T23:44:25.937Z,22.67
2022-08-20T23:47:01.816Z,22.64
2022-08-20T23:49:31.345Z,22.59
2022-08-20T23:52:00.101Z,22.53
2022-08-20T23:54:32.132Z,22.51
2022-08-20T23:56:59.961Z,22.51
2022-08-20T23:59:27.289Z,22.52
